Time;durP1;ratioP1;P1;durP2;ratioP2;P2;SDS_P1;SDS_P2;PMS_P1;PMS_P2;Temp;Humidity;BMP_temperature;BMP_pressure;BME280_temperature;BME280_humidity;BME280_pressure;Samples;Min_cycle;Max_cycle;Signal;HPM_P1;HPM_P2
2022/11/03 00:01:44;;;;;;;19.92;12.70;;;19.80;62.30;;;;;;5077315;28;20374;-95
2022/11/03 00:04:12;;;;;;;17.92;12.20;;;19.90;62.00;;;;;;5094902;28;20024;-92
2022/11/03 00:06:39;;;;;;;17.95;13.00;;;20.00;61.60;;;;;;5094740;28;20024;-88
2022/11/03 00:09:07;;;;;;;20.95;13.60;;;20.20;61.40;;;;;;5094961;28;20028;-89
2022/11/03 00:11:35;;;;;;;19.38;12.30;;;20.30;61.00;;;;;;5093642;28;20476;-92
2022/11/03 00:14:01;;;;;;;20.13;12.43;;;20.50;60.70;;;;;;5092559;28;20400;-91
2022/11/03 00:16:26;;;;;;;15.88;11.35;;;20.60;60.30;;;;;;5094509;28;20472;-93
2022/11/03 00:18:52;;;;;;;18.50;12.43;;;20.50;60.30;;;;;;5094563;28;20082;-90
2022/11/03 00:21:18;;;;;;;18.77;12.32;;;20.20;60.80;;;;;;5094453;28;20023;-86
2022/11/03 00:23:44;;;;;;;18.52;12.75;;;20.10;61.40;;;;;;5077642;28;20087;-91
2022/11/03 00:26:25;;;;;;;18.77;12.10;;;20.20;61.20;;;;;;5073885;28;20374;-88
2022/11/03 00:28:52;;;;;;;19.40;13.18;;;20.20;61.20;;;;;;5075176;28;20039;-92
2022/11/03 00:31:26;;;;;;;20.88;14.15;;;20.20;60.90;;;;;;5073896;28;20029;-87
2022/11/03 00:33:52;;;;;;;20.67;13.45;;;20.30;61.10;;;;;;5074068;28;20196;-88
2022/11/03 00:36:20;;;;;;;18.17;12.88;;;20.40;60.60;;;;;;5073572;28;20476;-89
2022/11/03 00:38:47;;;;;;;21.98;13.43;;;20.20;60.50;;;;;;5075297;28;20097;-87
2022/11/03 00:41:56;;;;;;;18.75;13.18;;;20.20;61.00;;;;;;5093683;28;20474;-93
2022/11/03 00:44:22;;;;;;;20.38;13.30;;;20.20;61.00;;;;;;5083913;28;20024;-93
2022/11/03 00:46:47;;;;;;;20.55;12.52;;;20.00;61.20;;;;;;5074517;28;20046;-92
2022/11/03 00:49:13;;;;;;;18.80;12.80;;;20.00;61.20;;;;;;5074239;28;20378;-95
2022/11/03 00:51:39;;;;;;;17.17;12.50;;;19.90;60.90;;;;;;5074145;28;20021;-92
2022/11/03 00:54:06;;;;;;;20.08;13.40;;;19.90;61.10;;;;;;5073744;28;20028;-92
2022/11/03 00:56:36;;;;;;;22.20;13.27;;;19.80;61.40;;;;;;5073523;28;20044;-84
2022/11/03 00:59:43;;;;;;;19.00;13.55;;;19.70;61.20;;;;;;5074191;28;20024;-89
2022/11/03 01:02:08;;;;;;;19.50;13.27;;;19.70;61.10;;;;;;5074207;28;20040;-92
2022/11/03 01:07:20;;;;;;;22.23;14.85;;;19.70;61.00;;;;;;5074256;28;20054;-89
2022/11/03 01:09:45;;;;;;;21.73;14.50;;;19.50;61.10;;;;;;5073301;28;20475;-86
2022/11/03 01:12:17;;;;;;;21.83;15.07;;;19.30;61.40;;;;;;5094541;28;20111;-87
2022/11/03 01:14:54;;;;;;;21.00;14.15;;;19.20;61.80;;;;;;5093391;28;20119;-89
2022/11/03 01:17:25;;;;;;;23.58;13.63;;;19.20;62.50;;;;;;5093756;28;20024;-87
2022/11/03 01:19:52;;;;;;;23.33;14.07;;;19.10;62.00;;;;;;5092524;28;20028;-92
2022/11/03 01:22:20;;;;;;;18.88;13.18;;;18.90;62.50;;;;;;5074154;28;20071;-89
2022/11/03 01:24:46;;;;;;;20.52;13.13;;;18.90;62.70;;;;;;5073076;28;20028;-89
2022/11/03 01:27:15;;;;;;;21.10;13.18;;;19.00;62.40;;;;;;5074412;28;20031;-87
2022/11/03 01:29:41;;;;;;;18.88;12.32;;;19.10;62.00;;;;;;5073130;28;20151;-93
2022/11/03 01:32:07;;;;;;;21.23;12.13;;;19.20;62.10;;;;;;5073672;28;20400;-89
2022/11/03 01:34:33;;;;;;;18.33;10.65;;;19.30;61.60;;;;;;5073063;28;20037;-84
2022/11/03 01:36:59;;;;;;;17.10;10.85;;;19.30;61.40;;;;;;5073573;28;20036;-85
2022/11/03 01:39:24;;;;;;;18.52;11.52;;;19.30;61.40;;;;;;5072444;28;20021;-89
2022/11/03 01:41:51;;;;;;;20.35;12.32;;;19.30;61.50;;;;;;5072825;28;20048;-93
2022/11/03 01:44:25;;;;;;;16.85;11.05;;;19.30;61.30;;;;;;5072727;28;20051;-90
2022/11/03 01:46:59;;;;;;;16.00;10.13;;;19.20;61.80;;;;;;5072348;28;20129;-87
2022/11/03 01:49:31;;;;;;;16.33;11.18;;;19.10;61.80;;;;;;5071813;28;20515;-82
2022/11/03 01:52:08;;;;;;;17.92;10.93;;;19.00;62.30;;;;;;5073762;28;20029;-82
2022/11/03 01:54:36;;;;;;;16.95;10.43;;;19.10;61.40;;;;;;5072137;28;20043;-82
2022/11/03 01:57:07;;;;;;;17.65;11.65;;;19.20;61.50;;;;;;5072508;28;20384;-90
2022/11/03 01:59:34;;;;;;;20.35;12.35;;;19.10;61.90;;;;;;5073443;28;20056;-87
2022/11/03 02:02:00;;;;;;;19.27;12.13;;;19.20;60.90;;;;;;5071705;28;20088;-87
2022/11/03 02:04:30;;;;;;;19.38;11.55;;;19.00;62.00;;;;;;5072296;28;20780;-89
2022/11/03 02:07:06;;;;;;;16.67;11.45;;;19.00;61.90;;;;;;5071931;28;20444;-83
2022/11/03 02:09:32;;;;;;;13.70;9.93;;;18.90;62.50;;;;;;5073235;28;20423;-83
2022/11/03 02:12:08;;;;;;;18.45;11.80;;;18.70;62.60;;;;;;5073158;28;20036;-83
2022/11/03 02:15:09;;;;;;;17.10;11.10;;;18.70;62.80;;;;;;5071555;28;20039;-91
2022/11/03 02:17:38;;;;;;;20.50;10.95;;;18.80;61.90;;;;;;5073219;28;20044;-83
2022/11/03 02:20:17;;;;;;;18.67;10.82;;;19.00;61.40;;;;;;5073064;28;20044;-91
2022/11/03 02:23:20;;;;;;;17.48;11.20;;;19.00;61.40;;;;;;5072424;28;20056;-87
2022/11/03 02:25:53;;;;;;;17.52;11.23;;;19.20;61.20;;;;;;5072280;28;20040;-90
2022/11/03 02:28:30;;;;;;;19.27;11.52;;;19.20;61.10;;;;;;5072131;28;20017;-90
2022/11/03 02:31:15;;;;;;;19.75;11.60;;;19.20;61.20;;;;;;5072341;28;20079;-87
2022/11/03 02:33:47;;;;;;;19.02;12.82;;;19.20;61.30;;;;;;5073067;28;20134;-90
2022/11/03 02:36:31;;;;;;;20.27;12.52;;;18.90;61.40;;;;;;5072564;28;20127;-92
2022/11/03 02:39:11;;;;;;;16.15;11.10;;;18.70;62.30;;;;;;5072438;28;20025;-88
2022/11/03 02:41:38;;;;;;;15.43;10.32;;;18.60;62.30;;;;;;5072699;28;20025;-92
2022/11/03 02:44:10;;;;;;;13.23;9.27;;;18.60;61.80;;;;;;5073786;28;20115;-92
2022/11/03 02:46:37;;;;;;;16.40;9.77;;;18.30;62.30;;;;;;5076280;28;20020;-88
2022/11/03 02:49:05;;;;;;;14.68;9.02;;;18.10;63.00;;;;;;5091167;28;20028;-86
2022/11/03 02:51:31;;;;;;;14.77;10.30;;;18.20;63.20;;;;;;5071878;28;20534;-85
2022/11/03 02:54:02;;;;;;;17.80;10.48;;;18.30;62.60;;;;;;5073888;28;20021;-85
2022/11/03 02:56:30;;;;;;;19.42;12.65;;;18.10;63.30;;;;;;5072576;28;20037;-82
2022/11/03 02:59:01;;;;;;;20.63;13.32;;;17.70;63.70;;;;;;5072143;28;20381;-89
2022/11/03 03:01:46;;;;;;;20.92;12.75;;;17.40;65.30;;;;;;5071286;28;20044;-89
2022/11/03 03:04:18;;;;;;;16.73;11.93;;;17.60;64.50;;;;;;5071924;28;20036;-91
2022/11/03 03:07:02;;;;;;;18.70;12.10;;;17.20;65.00;;;;;;5076821;28;20480;-80
2022/11/03 03:09:36;;;;;;;18.05;11.70;;;17.50;64.70;;;;;;5091063;28;20028;-80
2022/11/03 03:12:05;;;;;;;16.55;11.30;;;17.80;63.80;;;;;;5091549;28;20080;-81
2022/11/03 03:14:35;;;;;;;21.17;12.55;;;18.10;62.50;;;;;;5094657;28;20093;-80
2022/11/03 03:17:24;;;;;;;18.98;13.13;;;18.20;62.10;;;;;;5094936;28;20024;-81
2022/11/03 03:20:01;;;;;;;20.27;12.02;;;18.30;61.70;;;;;;5094763;28;20032;-86
2022/11/03 03:22:35;;;;;;;17.38;12.30;;;18.50;61.20;;;;;;5095566;28;20494;-89
2022/11/03 03:25:35;;;;;;;16.08;10.50;;;18.60;61.00;;;;;;5095355;28;20123;-88
2022/11/03 03:28:14;;;;;;;17.50;11.53;;;18.10;62.00;;;;;;5036508;28;20115;-88
2022/11/03 03:30:42;;;;;;;18.50;11.32;;;17.60;63.70;;;;;;5036787;28;20635;-86
2022/11/03 03:33:09;;;;;;;19.25;13.00;;;17.80;62.40;;;;;;5054143;28;20063;-89
2022/11/03 03:35:39;;;;;;;22.33;13.07;;;18.10;62.10;;;;;;5054178;28;20029;-88
2022/11/03 03:38:09;;;;;;;19.98;13.43;;;18.30;61.70;;;;;;5037293;28;20048;-86
2022/11/03 03:40:37;;;;;;;18.05;10.27;;;18.30;61.60;;;;;;5053862;28;20520;-85
2022/11/03 03:43:06;;;;;;;17.25;11.65;;;17.80;61.70;;;;;;5036539;28;20005;-80
2022/11/03 03:45:34;;;;;;;17.27;10.55;;;17.50;63.00;;;;;;5036967;28;20420;-81
2022/11/03 03:48:00;;;;;;;21.60;12.15;;;17.70;62.40;;;;;;5036115;28;20025;-81
2022/11/03 03:50:29;;;;;;;18.83;11.63;;;17.90;62.20;;;;;;5035974;28;20044;-84
2022/11/03 03:53:01;;;;;;;16.65;11.70;;;18.10;61.60;;;;;;5036288;28;20024;-82
2022/11/03 03:55:39;;;;;;;18.15;11.95;;;18.30;60.10;;;;;;5036979;28;20065;-82
2022/11/03 03:58:05;;;;;;;19.13;13.38;;;18.20;59.50;;;;;;5036943;28;20033;-85
2022/11/03 04:00:31;;;;;;;22.90;14.40;;;18.00;59.80;;;;;;5036305;28;20049;-83
2022/11/03 04:02:59;;;;;;;24.10;16.10;;;17.90;60.50;;;;;;5044188;28;20051;-87
2022/11/03 04:05:26;;;;;;;25.27;15.63;;;17.90;61.00;;;;;;5091328;28;20384;-81
2022/11/03 04:07:52;;;;;;;24.50;15.30;;;18.00;60.50;;;;;;5075499;28;20035;-84
2022/11/03 04:10:21;;;;;;;24.52;15.35;;;17.90;60.20;;;;;;5090756;28;20036;-83
2022/11/03 04:23:50;;;;;;;21.35;14.20;;;17.30;61.50;;;;;;5075391;28;20086;-84
2022/11/03 04:26:21;;;;;;;23.23;15.60;;;17.10;60.90;;;;;;5073613;28;20047;-84
2022/11/03 04:28:48;;;;;;;23.80;14.40;;;17.10;60.80;;;;;;5078519;28;20023;-82
2022/11/03 04:31:16;;;;;;;19.33;12.65;;;17.10;60.90;;;;;;5093691;28;20051;-83
2022/11/03 04:33:43;;;;;;;20.58;13.15;;;17.00;62.50;;;;;;5093662;28;20024;-82
2022/11/03 04:36:20;;;;;;;22.75;13.23;;;16.90;62.30;;;;;;5093912;28;20024;-83
2022/11/03 04:38:47;;;;;;;19.10;12.07;;;16.80;61.70;;;;;;5073255;28;20075;-83
2022/11/03 04:41:23;;;;;;;20.92;12.85;;;16.80;61.60;;;;;;5073422;28;20027;-83
2022/11/03 04:43:50;;;;;;;18.00;11.70;;;16.80;61.60;;;;;;5073234;28;20028;-84
2022/11/03 04:46:22;;;;;;;18.38;11.50;;;16.80;61.60;;;;;;5075095;28;20025;-84
2022/11/03 04:48:48;;;;;;;16.65;11.38;;;16.90;61.70;;;;;;5073301;28;20123;-86
2022/11/03 04:51:16;;;;;;;18.15;11.32;;;17.00;61.40;;;;;;5073807;28;20031;-85
2022/11/03 04:53:51;;;;;;;20.75;13.48;;;16.90;62.20;;;;;;5073604;28;20029;-84
2022/11/03 04:56:20;;;;;;;18.60;11.15;;;17.00;61.20;;;;;;5078148;28;20032;-83
2022/11/03 04:58:47;;;;;;;18.10;11.27;;;17.00;60.80;;;;;;5093397;28;20024;-85
2022/11/03 05:01:15;;;;;;;15.15;10.30;;;17.00;60.90;;;;;;5093631;28;20048;-85
2022/11/03 05:03:48;;;;;;;15.35;11.00;;;16.80;61.00;;;;;;5093900;28;20115;-84
2022/11/03 05:06:20;;;;;;;14.57;9.82;;;16.60;61.80;;;;;;5089959;28;20077;-85
2022/11/03 05:08:55;;;;;;;19.48;12.35;;;16.60;61.10;;;;;;5072946;28;20052;-84
2022/11/03 05:11:36;;;;;;;21.50;14.23;;;16.40;62.20;;;;;;5072988;28;20032;-83
2022/11/03 05:14:28;;;;;;;18.52;12.57;;;15.70;63.70;;;;;;5074008;28;20108;-84
2022/11/03 05:16:55;;;;;;;18.83;11.73;;;15.60;64.50;;;;;;5072921;28;20028;-84
2022/11/03 05:19:25;;;;;;;16.50;11.23;;;16.10;63.30;;;;;;5073010;28;20538;-84
2022/11/03 05:21:53;;;;;;;15.00;10.20;;;16.50;61.70;;;;;;5073087;28;20025;-84
2022/11/03 05:24:21;;;;;;;17.83;11.05;;;16.50;61.90;;;;;;5073062;28;20039;-84
2022/11/03 05:26:48;;;;;;;70.93;30.63;;;16.60;61.40;;;;;;5072315;28;20035;-82
2022/11/03 05:29:20;;;;;;;91.95;45.50;;;16.70;60.70;;;;;;5089113;28;20056;-83
2022/11/03 05:31:51;;;;;;;79.30;43.10;;;16.90;60.80;;;;;;5092666;28;20377;-84
2022/11/03 05:34:29;;;;;;;102.20;54.60;;;17.00;60.80;;;;;;5092196;28;20380;-83
2022/11/03 05:37:10;;;;;;;78.95;47.65;;;17.10;60.50;;;;;;5092187;28;20031;-84
2022/11/03 05:39:39;;;;;;;23.63;15.77;;;17.00;61.00;;;;;;5093005;28;20035;-85
2022/11/03 05:42:25;;;;;;;68.30;42.35;;;17.10;60.80;;;;;;5090052;28;20020;-83
2022/11/03 05:44:51;;;;;;;33.63;23.35;;;17.00;60.20;;;;;;5079541;28;20131;-84
2022/11/03 05:47:21;;;;;;;29.65;20.20;;;17.00;60.90;;;;;;5092135;28;20458;-81
2022/11/03 05:49:53;;;;;;;28.77;15.23;;;16.80;61.80;;;;;;5092051;28;20028;-83
2022/11/03 05:52:25;;;;;;;79.20;18.75;;;16.70;62.20;;;;;;5092244;28;20024;-83
2022/11/03 05:54:54;;;;;;;83.88;16.92;;;16.70;61.30;;;;;;5093276;28;20480;-83
2022/11/03 05:57:20;;;;;;;43.95;13.60;;;16.70;61.50;;;;;;5092107;28;20030;-83
2022/11/03 05:59:50;;;;;;;64.10;13.48;;;16.80;60.80;;;;;;5092915;28;20115;-82
2022/11/03 06:02:40;;;;;;;123.22;16.90;;;16.70;61.70;;;;;;5073847;28;20029;-83
2022/11/03 06:05:19;;;;;;;73.50;13.57;;;16.70;61.30;;;;;;5071991;28;20119;-81
2022/11/03 06:07:46;;;;;;;33.90;22.87;;;16.70;61.20;;;;;;5072349;28;20020;-83
2022/11/03 06:10:32;;;;;;;36.22;19.52;;;16.40;62.10;;;;;;5071507;28;20068;-81
2022/11/03 06:13:07;;;;;;;34.38;12.15;;;16.30;61.90;;;;;;5073241;28;20025;-81
2022/11/03 06:15:36;;;;;;;97.50;15.30;;;16.40;61.80;;;;;;5089430;28;20025;-83
2022/11/03 06:18:23;;;;;;;17.48;12.13;;;16.40;62.30;;;;;;5072346;28;20485;-84
2022/11/03 06:20:57;;;;;;;49.90;13.48;;;16.40;62.40;;;;;;5072091;28;20031;-82
2022/11/03 06:23:23;;;;;;;79.90;14.07;;;16.20;63.50;;;;;;5089973;28;20031;-83
2022/11/03 06:25:52;;;;;;;151.93;18.38;;;16.30;63.20;;;;;;5093060;28;20027;-83
2022/11/03 06:28:29;;;;;;;15.27;11.57;;;16.40;63.10;;;;;;5080221;28;20025;-84
2022/11/03 06:30:55;;;;;;;15.68;11.05;;;16.60;61.90;;;;;;5076837;28;20395;-83
2022/11/03 06:33:23;;;;;;;16.88;12.75;;;16.00;63.80;;;;;;5091215;28;20026;-83
2022/11/03 06:35:51;;;;;;;16.90;11.77;;;15.80;64.50;;;;;;5090255;28;20036;-84
2022/11/03 06:38:30;;;;;;;19.52;14.70;;;15.60;65.10;;;;;;5087034;28;20111;-83
2022/11/03 06:40:57;;;;;;;17.20;12.60;;;15.50;67.20;;;;;;5091901;28;20459;-83
2022/11/03 06:43:27;;;;;;;20.75;12.50;;;15.80;66.10;;;;;;5084975;28;20020;-83
2022/11/03 06:46:17;;;;;;;13.45;10.75;;;16.40;64.90;;;;;;5073330;28;20052;-83
2022/11/03 06:48:46;;;;;;;16.27;11.18;;;16.80;63.70;;;;;;5074033;28;20369;-81
2022/11/03 06:51:21;;;;;;;16.52;10.77;;;17.10;62.80;;;;;;5076020;28;20068;-83
2022/11/03 06:53:49;;;;;;;18.05;11.15;;;17.40;62.40;;;;;;5075515;28;20055;-84
2022/11/03 06:56:19;;;;;;;18.30;11.13;;;17.60;61.60;;;;;;5090141;28;20467;-83
2022/11/03 06:58:47;;;;;;;19.65;10.18;;;17.80;61.00;;;;;;5080731;28;20016;-83
2022/11/03 07:01:25;;;;;;;15.27;10.32;;;17.90;60.80;;;;;;5093976;28;20402;-83
2022/11/03 07:04:11;;;;;;;15.35;9.57;;;17.70;61.10;;;;;;5081126;28;20016;-83
2022/11/03 07:06:37;;;;;;;17.15;9.38;;;17.50;61.50;;;;;;5082073;28;20059;-83
2022/11/03 07:09:06;;;;;;;14.13;8.68;;;17.50;61.80;;;;;;5074816;28;20107;-83
2022/11/03 07:11:36;;;;;;;14.40;8.73;;;17.30;62.20;;;;;;5092089;28;20392;-84
2022/11/03 07:14:16;;;;;;;12.20;8.52;;;17.60;62.10;;;;;;5077311;28;20510;-83
2022/11/03 07:16:52;;;;;;;14.90;8.95;;;17.80;61.60;;;;;;5072397;28;20048;-84
2022/11/03 07:19:18;;;;;;;13.60;9.05;;;18.10;61.10;;;;;;5085864;28;20024;-82
2022/11/03 07:21:59;;;;;;;12.18;7.50;;;18.30;60.40;;;;;;5096280;28;20047;-84
2022/11/03 07:24:38;;;;;;;16.17;7.05;;;18.40;59.80;;;;;;5095345;28;20024;-84
2022/11/03 07:27:07;;;;;;;9.93;6.80;;;18.60;59.60;;;;;;5095320;28;20372;-86
2022/11/03 07:29:32;;;;;;;9.75;6.65;;;18.90;59.20;;;;;;5076836;28;20032;-86
2022/11/03 07:31:59;;;;;;;9.98;6.93;;;19.10;59.00;;;;;;5075030;28;20025;-86
2022/11/03 07:34:30;;;;;;;9.93;6.72;;;19.40;58.50;;;;;;5084474;28;20028;-85
2022/11/03 07:36:56;;;;;;;14.32;6.03;;;19.30;58.20;;;;;;5095442;28;20117;-87
2022/11/03 07:39:22;;;;;;;11.13;6.00;;;19.00;58.50;;;;;;5095251;28;20033;-85
2022/11/03 07:41:49;;;;;;;11.00;6.57;;;18.80;59.70;;;;;;5094867;28;20404;-84
2022/11/03 07:44:19;;;;;;;13.50;6.60;;;18.90;59.30;;;;;;5086119;28;20029;-85
2022/11/03 07:46:46;;;;;;;13.45;7.38;;;19.20;59.80;;;;;;5075105;28;20032;-82
2022/11/03 07:49:28;;;;;;;13.23;7.28;;;19.50;59.10;;;;;;5091637;28;20036;-92
2022/11/03 07:51:56;;;;;;;12.45;6.70;;;19.60;59.10;;;;;;5080871;28;20127;-89
2022/11/03 07:54:29;;;;;;;9.13;6.45;;;19.10;59.60;;;;;;5081867;28;20030;-88
2022/11/03 07:57:22;;;;;;;10.95;5.93;;;18.90;59.90;;;;;;5077697;28;21200;-88
2022/11/03 07:59:50;;;;;;;10.35;6.70;;;18.90;59.50;;;;;;5082089;28;20016;-85
2022/11/03 08:02:47;;;;;;;10.43;6.82;;;19.10;60.10;;;;;;5093306;28;20119;-88
2022/11/03 08:05:13;;;;;;;10.65;5.70;;;19.50;59.50;;;;;;5089533;28;20384;-92
2022/11/03 08:07:39;;;;;;;10.98;6.28;;;19.60;57.90;;;;;;5088187;28;20028;-91
2022/11/03 08:10:06;;;;;;;13.65;6.57;;;19.50;59.50;;;;;;5079939;28;20032;-89
2022/11/03 08:12:32;;;;;;;9.07;5.53;;;19.30;59.70;;;;;;5076041;28;20024;-90
2022/11/03 08:14:58;;;;;;;9.50;5.97;;;19.10;59.90;;;;;;5087746;28;20039;-89
2022/11/03 08:17:23;;;;;;;10.00;5.45;;;18.60;60.40;;;;;;5074690;28;20028;-94
2022/11/03 08:19:49;;;;;;;9.25;4.97;;;18.50;61.20;;;;;;5074972;28;20146;-91
2022/11/03 08:22:15;;;;;;;12.18;5.25;;;18.50;60.50;;;;;;5075969;28;20519;-94
2022/11/03 08:24:40;;;;;;;13.55;5.03;;;18.10;60.30;;;;;;5076174;28;20113;-85
2022/11/03 08:27:06;;;;;;;11.15;6.38;;;17.50;61.30;;;;;;5076390;28;20021;-92
2022/11/03 08:29:32;;;;;;;13.18;6.70;;;17.00;63.60;;;;;;5075489;28;20036;-87
2022/11/03 08:31:58;;;;;;;11.77;6.60;;;17.40;63.40;;;;;;5074305;28;20544;-92
2022/11/03 08:34:23;;;;;;;11.35;6.35;;;17.50;62.60;;;;;;5077665;28;20017;-93
2022/11/03 08:36:49;;;;;;;14.82;6.70;;;17.40;63.40;;;;;;5074002;28;20468;-88
2022/11/03 08:39:14;;;;;;;11.98;6.85;;;17.30;63.00;;;;;;5074328;28;20024;-91
2022/11/03 08:41:40;;;;;;;12.07;6.88;;;17.30;63.30;;;;;;5074927;28;20012;-90
2022/11/03 08:44:06;;;;;;;12.82;6.55;;;17.70;62.90;;;;;;5073206;28;20052;-85
2022/11/03 08:46:31;;;;;;;13.75;7.22;;;18.40;61.70;;;;;;5073660;28;20114;-88
2022/11/03 08:48:57;;;;;;;15.60;7.85;;;19.00;60.80;;;;;;5073364;28;20028;-84
2022/11/03 08:51:23;;;;;;;16.75;9.18;;;19.50;59.80;;;;;;5074331;28;20020;-86
2022/11/03 08:53:49;;;;;;;20.35;9.88;;;19.80;59.90;;;;;;5073009;28;20135;-88
2022/11/03 08:56:15;;;;;;;18.33;10.65;;;19.90;59.90;;;;;;5074426;28;20051;-85
2022/11/03 08:58:42;;;;;;;21.73;10.10;;;20.00;59.60;;;;;;5074340;28;20385;-91
2022/11/03 09:01:07;;;;;;;19.77;9.48;;;20.00;60.00;;;;;;5073964;28;20044;-89
2022/11/03 09:03:33;;;;;;;22.27;10.70;;;20.00;59.70;;;;;;5074140;28;20044;-87
2022/11/03 09:05:59;;;;;;;21.88;10.95;;;20.10;60.00;;;;;;5072994;28;20052;-87
2022/11/03 09:08:24;;;;;;;22.88;11.40;;;20.20;59.80;;;;;;5072987;28;20029;-86
2022/11/03 09:10:50;;;;;;;29.38;14.88;;;20.30;59.70;;;;;;5073033;28;20041;-89
2022/11/03 09:13:15;;;;;;;31.98;14.98;;;20.40;59.80;;;;;;5072911;28;20106;-88
2022/11/03 09:15:41;;;;;;;33.95;16.02;;;20.30;60.20;;;;;;5072804;28;20035;-86
2022/11/03 09:18:07;;;;;;;33.38;16.42;;;20.40;60.40;;;;;;5073594;28;20028;-86
2022/11/03 09:20:32;;;;;;;27.25;14.65;;;20.60;60.40;;;;;;5073894;28;20025;-86
2022/11/03 09:22:58;;;;;;;30.88;16.65;;;20.70;60.30;;;;;;5073716;28;20025;-86
2022/11/03 09:25:24;;;;;;;34.92;17.25;;;20.70;60.20;;;;;;5072885;28;20032;-88
2022/11/03 09:27:49;;;;;;;33.15;16.17;;;20.50;61.20;;;;;;5074207;28;20036;-85
2022/11/03 09:30:16;;;;;;;33.45;17.30;;;20.20;61.00;;;;;;5073515;28;20055;-92
2022/11/03 09:32:42;;;;;;;34.67;16.67;;;19.50;63.00;;;;;;5072830;28;20099;-89
2022/11/03 09:35:08;;;;;;;34.10;17.75;;;19.30;63.50;;;;;;5072864;28;20036;-85
2022/11/03 09:37:35;;;;;;;36.17;17.52;;;19.50;63.20;;;;;;5072817;28;20028;-89
2022/11/03 09:40:01;;;;;;;35.38;17.63;;;19.20;63.60;;;;;;5072662;28;20024;-86
2022/11/03 09:42:27;;;;;;;37.53;17.80;;;18.70;65.60;;;;;;5072581;28;20029;-89
2022/11/03 09:44:54;;;;;;;33.50;17.45;;;18.50;65.90;;;;;;5072993;28;20477;-93
2022/11/03 09:47:29;;;;;;;35.25;17.98;;;18.70;65.60;;;;;;5072555;28;20035;-86
2022/11/03 09:49:59;;;;;;;40.28;18.83;;;18.80;65.40;;;;;;5073070;28;20111;-91
2022/11/03 09:52:25;;;;;;;36.42;17.85;;;18.50;66.40;;;;;;5071932;28;20020;-87
2022/11/03 09:54:54;;;;;;;39.80;19.65;;;18.80;66.90;;;;;;5072578;28;20500;-85
2022/11/03 09:57:25;;;;;;;37.78;18.80;;;19.10;65.50;;;;;;5073689;28;20031;-87
2022/11/03 09:59:51;;;;;;;39.92;19.20;;;18.50;66.10;;;;;;5073413;28;20028;-90
2022/11/03 10:02:22;;;;;;;37.97;20.23;;;18.50;67.60;;;;;;5073888;28;20085;-93
2022/11/03 10:04:51;;;;;;;40.00;19.50;;;18.10;67.70;;;;;;5073347;28;20384;-84
2022/11/03 10:07:17;;;;;;;38.08;19.33;;;17.90;68.60;;;;;;5072724;28;20040;-85
2022/11/03 10:09:49;;;;;;;38.38;20.67;;;17.90;68.60;;;;;;5073391;28;20037;-88
2022/11/03 10:12:15;;;;;;;40.72;20.50;;;17.50;69.70;;;;;;5073451;28;20031;-88
2022/11/03 10:14:43;;;;;;;41.55;21.63;;;17.40;70.30;;;;;;5072019;28;20024;-92
2022/11/03 10:17:20;;;;;;;42.58;22.35;;;17.40;70.30;;;;;;5074284;28;20060;-87
2022/11/03 10:19:51;;;;;;;43.67;22.42;;;17.70;69.20;;;;;;5073061;28;20047;-90
2022/11/03 10:22:21;;;;;;;43.92;23.60;;;17.90;69.20;;;;;;5075601;28;20059;-89
2022/11/03 10:24:47;;;;;;;40.80;20.48;;;17.80;69.80;;;;;;5077053;28;20046;-91
2022/11/03 10:27:21;;;;;;;37.72;20.65;;;17.30;70.50;;;;;;5077005;28;20025;-91
2022/11/03 10:30:07;;;;;;;41.50;21.75;;;17.40;71.50;;;;;;5076550;28;20039;-90
2022/11/03 10:32:33;;;;;;;38.30;19.75;;;17.60;71.10;;;;;;5077082;28;20020;-91
2022/11/03 10:35:00;;;;;;;41.20;21.02;;;17.60;70.40;;;;;;5076499;28;20384;-86
2022/11/03 10:37:27;;;;;;;44.00;21.92;;;17.50;70.70;;;;;;5076311;28;20027;-89
2022/11/03 10:40:00;;;;;;;44.58;21.40;;;17.10;71.50;;;;;;5077149;28;20020;-93
2022/11/03 10:42:30;;;;;;;43.38;22.85;;;17.30;71.70;;;;;;5076430;28;20024;-90
2022/11/03 10:45:16;;;;;;;38.45;21.33;;;17.50;70.60;;;;;;5076108;28;20029;-83
2022/11/03 10:47:42;;;;;;;40.72;20.15;;;17.50;69.40;;;;;;5076533;28;20068;-88
2022/11/03 10:50:23;;;;;;;38.92;21.33;;;17.20;71.20;;;;;;5076613;28;20422;-82
2022/11/03 10:52:51;;;;;;;50.08;22.92;;;16.90;71.60;;;;;;5077079;28;20024;-92
2022/11/03 10:55:18;;;;;;;58.70;31.73;;;16.90;72.10;;;;;;5076928;28;20032;-86
2022/11/03 10:57:45;;;;;;;46.95;25.48;;;16.90;72.40;;;;;;5077269;28;20536;-93
2022/11/03 11:00:15;;;;;;;44.42;23.05;;;17.20;71.90;;;;;;5075813;28;20029;-92
2022/11/03 11:02:42;;;;;;;;;;;17.10;71.70;;;;;;5076494;28;20029;-93
2022/11/03 11:05:22;;;;;;;44.38;22.45;;;17.50;70.30;;;;;;5078817;28;19908;-88
2022/11/03 11:07:50;;;;;;;47.20;23.10;;;17.40;70.80;;;;;;5079640;28;20027;-89
2022/11/03 11:10:21;;;;;;;59.15;29.08;;;17.30;71.60;;;;;;5079575;28;20511;-85
2022/11/03 11:13:25;;;;;;;60.80;27.58;;;17.30;71.50;;;;;;5079347;28;20035;-90
2022/11/03 11:15:52;;;;;;;70.93;33.08;;;17.60;70.40;;;;;;5075742;28;20036;-94
2022/11/03 11:18:30;;;;;;;95.32;42.60;;;17.60;70.00;;;;;;5078986;28;20035;-86
2022/11/03 11:20:59;;;;;;;90.90;43.80;;;17.40;71.50;;;;;;5078237;28;20051;-87
2022/11/03 11:23:28;;;;;;;66.32;34.47;;;17.30;71.00;;;;;;5079047;28;20028;-93
2022/11/03 11:26:09;;;;;;;53.22;27.35;;;17.30;71.90;;;;;;5078504;28;20467;-89
2022/11/03 11:28:39;;;;;;;50.88;25.88;;;17.50;70.90;;;;;;5078532;28;20024;-90
2022/11/03 11:31:28;;;;;;;48.63;24.77;;;17.60;71.00;;;;;;5078355;28;20032;-90
2022/11/03 11:34:09;;;;;;;47.28;24.02;;;17.70;70.50;;;;;;5095569;28;20113;-94
2022/11/03 11:36:36;;;;;;;44.55;22.23;;;17.30;71.70;;;;;;5078182;28;20031;-84
2022/11/03 11:39:03;;;;;;;47.83;23.75;;;17.30;71.10;;;;;;5079103;28;20460;-85
2022/11/03 11:42:08;;;;;;;49.40;24.27;;;17.40;70.90;;;;;;5078523;28;20472;-93
2022/11/03 11:44:44;;;;;;;48.78;22.65;;;17.80;70.80;;;;;;5078956;28;20103;-86
2022/11/03 11:47:31;;;;;;;45.67;22.75;;;17.80;69.60;;;;;;5078041;28;20036;-89
2022/11/03 11:50:05;;;;;;;45.15;21.33;;;18.00;70.30;;;;;;5078378;28;20039;-87
2022/11/03 11:52:59;;;;;;;39.35;22.42;;;18.30;68.90;;;;;;5077824;28;20461;-88
2022/11/03 11:55:40;;;;;;;40.15;20.88;;;18.00;69.40;;;;;;5077907;28;20088;-91
2022/11/03 11:58:24;;;;;;;47.97;22.70;;;18.20;69.10;;;;;;5077898;28;20024;-89
2022/11/03 12:00:57;;;;;;;40.67;20.75;;;18.30;69.30;;;;;;5077039;28;20080;-89
2022/11/03 12:03:29;;;;;;;47.40;22.77;;;18.60;68.00;;;;;;5078190;28;20036;-92
2022/11/03 12:05:55;;;;;;;43.65;21.73;;;18.70;67.80;;;;;;5077771;28;20127;-90
2022/11/03 12:08:27;;;;;;;40.95;20.92;;;18.60;68.40;;;;;;5077827;28;20555;-87
2022/11/03 12:10:58;;;;;;;39.67;20.92;;;18.60;67.70;;;;;;5077919;28;20051;-91
2022/11/03 12:13:46;;;;;;;42.05;21.15;;;18.10;68.80;;;;;;5095394;28;20020;-90
2022/11/03 12:16:36;;;;;;;44.15;23.00;;;18.10;69.10;;;;;;5078286;28;20054;-89
2022/11/03 12:19:40;;;;;;;42.83;21.90;;;18.10;69.90;;;;;;5079091;28;20564;-92
2022/11/03 12:22:06;;;;;;;41.00;22.13;;;18.40;68.70;;;;;;5077575;28;20012;-93
2022/11/03 12:24:32;;;;;;;43.83;21.85;;;18.30;68.80;;;;;;5077385;28;20024;-89
2022/11/03 12:26:58;;;;;;;39.40;22.55;;;18.00;68.90;;;;;;5077511;28;20028;-85
2022/11/03 12:29:27;;;;;;;44.70;22.95;;;18.10;69.40;;;;;;5076888;28;20028;-91
2022/11/03 12:31:53;;;;;;;44.72;23.52;;;18.20;68.70;;;;;;5077155;28;20077;-87
2022/11/03 12:34:19;;;;;;;49.28;23.60;;;18.00;70.00;;;;;;5077616;28;20115;-92
2022/11/03 12:36:45;;;;;;;43.55;23.08;;;17.60;71.40;;;;;;5077250;28;20028;-89
2022/11/03 12:39:11;;;;;;;51.90;24.45;;;17.50;71.70;;;;;;5076854;28;20093;-92
2022/11/03 12:41:37;;;;;;;47.88;24.80;;;17.80;70.50;;;;;;5077653;28;20472;-90
2022/11/03 12:44:03;;;;;;;52.17;24.33;;;17.90;70.00;;;;;;5077109;28;20481;-90
2022/11/03 12:46:29;;;;;;;47.38;22.17;;;17.80;70.80;;;;;;5095269;28;20057;-90
2022/11/03 12:48:54;;;;;;;41.17;21.90;;;17.90;70.40;;;;;;5077028;28;20024;-90
2022/11/03 12:51:24;;;;;;;43.20;22.52;;;17.70;71.30;;;;;;5094872;28;20063;-88
2022/11/03 12:53:53;;;;;;;45.97;23.38;;;17.90;70.80;;;;;;5094084;28;20016;-91
2022/11/03 12:56:19;;;;;;;49.10;24.73;;;17.90;70.20;;;;;;5094280;28;20032;-89
2022/11/03 12:58:45;;;;;;;43.22;22.33;;;18.30;69.90;;;;;;5096831;28;20031;-87
2022/11/03 13:01:11;;;;;;;47.50;24.02;;;18.80;68.00;;;;;;5097008;28;20043;-85
2022/11/03 13:03:36;;;;;;;44.38;22.17;;;18.60;67.80;;;;;;5096657;28;20028;-87